sensor_id;sensor_type;location;lat;lon;timestamp;P1;durP1;ratioP1;P2;durP2;ratioP2
29280;SDS011;25048;49.590;11.026;2023-08-07T00:01:50;0.40;;;0.40;;
29280;SDS011;25048;49.590;11.026;2023-08-07T00:04:18;0.50;;;0.50;;
29280;SDS011;25048;49.590;11.026;2023-08-07T00:06:46;1.27;;;0.60;;
29280;SDS011;25048;49.590;11.026;2023-08-07T00:09:13;1.53;;;0.50;;
29280;SDS011;25048;49.590;11.026;2023-08-07T00:11:41;0.80;;;0.40;;
29280;SDS011;25048;49.590;11.026;2023-08-07T00:14:08;0.40;;;0.40;;
29280;SDS011;25048;49.590;11.026;2023-08-07T00:16:36;0.50;;;0.50;;
29280;SDS011;25048;49.590;11.026;2023-08-07T00:19:03;0.50;;;0.50;;
29280;SDS011;25048;49.590;11.026;2023-08-07T00:21:31;0.70;;;0.60;;
29280;SDS011;25048;49.590;11.026;2023-08-07T00:24:00;1.70;;;0.40;;
29280;SDS011;25048;49.590;11.026;2023-08-07T00:26:28;0.40;;;0.40;;
29280;SDS011;25048;49.590;11.026;2023-08-07T00:28:57;0.70;;;0.40;;
29280;SDS011;25048;49.590;11.026;2023-08-07T00:31:24;2.50;;;0.60;;
29280;SDS011;25048;49.590;11.026;2023-08-07T00:33:54;1.83;;;0.43;;
29280;SDS011;25048;49.590;11.026;2023-08-07T00:36:21;4.00;;;0.50;;
29280;SDS011;25048;49.590;11.026;2023-08-07T00:38:49;1.27;;;0.50;;
29280;SDS011;25048;49.590;11.026;2023-08-07T00:41:17;1.33;;;1.17;;
29280;SDS011;25048;49.590;11.026;2023-08-07T00:43:44;0.40;;;0.40;;
29280;SDS011;25048;49.590;11.026;2023-08-07T00:46:12;0.60;;;0.53;;
29280;SDS011;25048;49.590;11.026;2023-08-07T00:48:40;0.40;;;0.40;;
29280;SDS011;25048;49.590;11.026;2023-08-07T00:51:08;2.23;;;0.30;;
29280;SDS011;25048;49.590;11.026;2023-08-07T00:53:41;1.23;;;0.47;;
29280;SDS011;25048;49.590;11.026;2023-08-07T00:56:06;0.40;;;0.40;;
29280;SDS011;25048;49.590;11.026;2023-08-07T00:58:34;0.97;;;0.50;;
29280;SDS011;25048;49.590;11.026;2023-08-07T01:01:02;1.60;;;0.37;;
29280;SDS011;25048;49.590;11.026;2023-08-07T01:03:31;0.60;;;0.30;;
29280;SDS011;25048;49.590;11.026;2023-08-07T01:05:59;0.30;;;0.30;;
29280;SDS011;25048;49.590;11.026;2023-08-07T01:08:26;0.90;;;0.40;;
29280;SDS011;25048;49.590;11.026;2023-08-07T01:16:22;0.40;;;0.40;;
29280;SDS011;25048;49.590;11.026;2023-08-07T01:18:55;1.40;;;0.60;;
29280;SDS011;25048;49.590;11.026;2023-08-07T01:21:25;0.73;;;0.50;;
29280;SDS011;25048;49.590;11.026;2023-08-07T01:23:52;0.93;;;0.60;;
29280;SDS011;25048;49.590;11.026;2023-08-07T01:26:20;1.53;;;0.43;;
29280;SDS011;25048;49.590;11.026;2023-08-07T01:29:06;0.47;;;0.43;;
29280;SDS011;25048;49.590;11.026;2023-08-07T01:31:34;1.10;;;0.53;;
29280;SDS011;25048;49.590;11.026;2023-08-07T01:34:05;3.40;;;0.90;;
29280;SDS011;25048;49.590;11.026;2023-08-07T01:36:34;1.90;;;0.60;;
29280;SDS011;25048;49.590;11.026;2023-08-07T01:39:03;1.60;;;0.70;;
29280;SDS011;25048;49.590;11.026;2023-08-07T01:41:34;0.83;;;0.70;;
29280;SDS011;25048;49.590;11.026;2023-08-07T01:44:03;1.70;;;1.00;;
29280;SDS011;25048;49.590;11.026;2023-08-07T01:46:31;2.20;;;0.50;;
29280;SDS011;25048;49.590;11.026;2023-08-07T01:48:59;1.00;;;0.70;;
29280;SDS011;25048;49.590;11.026;2023-08-07T01:51:26;1.30;;;0.60;;
29280;SDS011;25048;49.590;11.026;2023-08-07T01:53:54;0.93;;;0.67;;
29280;SDS011;25048;49.590;11.026;2023-08-07T01:56:21;2.03;;;0.53;;
29280;SDS011;25048;49.590;11.026;2023-08-07T01:58:49;1.17;;;0.50;;
29280;SDS011;25048;49.590;11.026;2023-08-07T02:01:16;1.37;;;0.60;;
29280;SDS011;25048;49.590;11.026;2023-08-07T02:03:44;0.67;;;0.60;;
29280;SDS011;25048;49.590;11.026;2023-08-07T02:06:11;4.87;;;0.60;;
29280;SDS011;25048;49.590;11.026;2023-08-07T02:08:38;1.53;;;0.70;;
29280;SDS011;25048;49.590;11.026;2023-08-07T02:11:06;1.83;;;0.87;;
29280;SDS011;25048;49.590;11.026;2023-08-07T02:13:33;1.57;;;0.50;;
29280;SDS011;25048;49.590;11.026;2023-08-07T02:16:01;0.97;;;0.57;;
29280;SDS011;25048;49.590;11.026;2023-08-07T02:18:28;3.33;;;0.63;;
29280;SDS011;25048;49.590;11.026;2023-08-07T02:20:56;0.70;;;0.50;;
29280;SDS011;25048;49.590;11.026;2023-08-07T02:23:24;0.50;;;0.50;;
29280;SDS011;25048;49.590;11.026;2023-08-07T02:25:53;0.87;;;0.70;;
29280;SDS011;25048;49.590;11.026;2023-08-07T02:28:20;3.77;;;0.60;;
29280;SDS011;25048;49.590;11.026;2023-08-07T02:30:48;1.50;;;0.70;;
29280;SDS011;25048;49.590;11.026;2023-08-07T02:33:17;0.67;;;0.60;;
29280;SDS011;25048;49.590;11.026;2023-08-07T02:35:44;1.43;;;0.80;;
29280;SDS011;25048;49.590;11.026;2023-08-07T02:38:11;4.87;;;0.73;;
29280;SDS011;25048;49.590;11.026;2023-08-07T02:40:39;1.47;;;0.57;;
29280;SDS011;25048;49.590;11.026;2023-08-07T02:43:06;1.43;;;0.60;;
29280;SDS011;25048;49.590;11.026;2023-08-07T02:45:34;2.00;;;0.50;;
29280;SDS011;25048;49.590;11.026;2023-08-07T02:48:02;2.00;;;0.60;;
29280;SDS011;25048;49.590;11.026;2023-08-07T02:50:29;0.83;;;0.60;;
29280;SDS011;25048;49.590;11.026;2023-08-07T02:53:01;3.93;;;0.87;;
29280;SDS011;25048;49.590;11.026;2023-08-07T02:55:29;2.23;;;0.60;;
29280;SDS011;25048;49.590;11.026;2023-08-07T02:57:56;0.80;;;0.60;;
29280;SDS011;25048;49.590;11.026;2023-08-07T03:00:24;0.97;;;0.70;;
29280;SDS011;25048;49.590;11.026;2023-08-07T03:02:51;2.20;;;1.20;;
29280;SDS011;25048;49.590;11.026;2023-08-07T03:05:19;0.93;;;0.60;;
29280;SDS011;25048;49.590;11.026;2023-08-07T03:07:46;1.47;;;0.60;;
29280;SDS011;25048;49.590;11.026;2023-08-07T03:10:14;2.20;;;0.70;;
29280;SDS011;25048;49.590;11.026;2023-08-07T03:12:41;3.00;;;0.80;;
29280;SDS011;25048;49.590;11.026;2023-08-07T03:15:09;2.73;;;0.70;;
29280;SDS011;25048;49.590;11.026;2023-08-07T03:17:36;1.60;;;1.00;;
29280;SDS011;25048;49.590;11.026;2023-08-07T03:20:04;5.73;;;0.70;;
29280;SDS011;25048;49.590;11.026;2023-08-07T03:22:32;2.70;;;1.33;;
29280;SDS011;25048;49.590;11.026;2023-08-07T03:24:59;3.53;;;0.70;;
29280;SDS011;25048;49.590;11.026;2023-08-07T03:27:27;3.03;;;0.80;;
29280;SDS011;25048;49.590;11.026;2023-08-07T03:29:55;1.23;;;0.90;;
29280;SDS011;25048;49.590;11.026;2023-08-07T03:32:22;5.20;;;1.03;;
29280;SDS011;25048;49.590;11.026;2023-08-07T03:34:50;1.27;;;0.87;;
29280;SDS011;25048;49.590;11.026;2023-08-07T03:37:17;1.20;;;0.90;;
29280;SDS011;25048;49.590;11.026;2023-08-07T03:39:45;8.47;;;1.30;;
29280;SDS011;25048;49.590;11.026;2023-08-07T03:42:13;2.00;;;1.00;;
29280;SDS011;25048;49.590;11.026;2023-08-07T03:44:41;3.37;;;1.30;;
29280;SDS011;25048;49.590;11.026;2023-08-07T03:47:09;2.77;;;1.20;;
29280;SDS011;25048;49.590;11.026;2023-08-07T03:49:36;1.23;;;1.10;;
29280;SDS011;25048;49.590;11.026;2023-08-07T03:52:04;2.03;;;0.90;;
29280;SDS011;25048;49.590;11.026;2023-08-07T03:54:32;2.10;;;1.00;;
29280;SDS011;25048;49.590;11.026;2023-08-07T03:56:59;1.30;;;0.90;;
29280;SDS011;25048;49.590;11.026;2023-08-07T03:59:27;1.47;;;1.07;;
29280;SDS011;25048;49.590;11.026;2023-08-07T04:01:54;1.40;;;1.10;;
29280;SDS011;25048;49.590;11.026;2023-08-07T04:04:22;5.17;;;1.50;;
29280;SDS011;25048;49.590;11.026;2023-08-07T04:06:49;5.60;;;1.47;;
29280;SDS011;25048;49.590;11.026;2023-08-07T04:09:17;3.53;;;1.50;;
29280;SDS011;25048;49.590;11.026;2023-08-07T04:11:44;1.47;;;1.17;;
29280;SDS011;25048;49.590;11.026;2023-08-07T04:14:12;6.93;;;1.23;;
29280;SDS011;25048;49.590;11.026;2023-08-07T04:16:39;3.73;;;1.23;;
29280;SDS011;25048;49.590;11.026;2023-08-07T04:19:07;4.57;;;1.10;;
29280;SDS011;25048;49.590;11.026;2023-08-07T04:21:34;1.70;;;1.40;;
29280;SDS011;25048;49.590;11.026;2023-08-07T04:24:02;6.37;;;1.90;;
29280;SDS011;25048;49.590;11.026;2023-08-07T04:26:34;3.03;;;1.50;;
29280;SDS011;25048;49.590;11.026;2023-08-07T04:29:02;1.83;;;1.50;;
29280;SDS011;25048;49.590;11.026;2023-08-07T04:31:30;3.83;;;1.50;;
29280;SDS011;25048;49.590;11.026;2023-08-07T04:33:58;4.10;;;1.40;;
29280;SDS011;25048;49.590;11.026;2023-08-07T04:36:26;6.03;;;1.53;;
29280;SDS011;25048;49.590;11.026;2023-08-07T04:38:53;3.80;;;1.53;;
29280;SDS011;25048;49.590;11.026;2023-08-07T04:41:21;4.47;;;1.73;;
29280;SDS011;25048;49.590;11.026;2023-08-07T04:43:50;5.40;;;1.87;;
29280;SDS011;25048;49.590;11.026;2023-08-07T04:46:17;4.77;;;1.97;;
29280;SDS011;25048;49.590;11.026;2023-08-07T04:48:45;3.83;;;1.87;;
29280;SDS011;25048;49.590;11.026;2023-08-07T04:51:13;8.23;;;1.80;;
29280;SDS011;25048;49.590;11.026;2023-08-07T04:53:41;3.33;;;1.77;;
29280;SDS011;25048;49.590;11.026;2023-08-07T04:56:08;6.17;;;1.97;;
29280;SDS011;25048;49.590;11.026;2023-08-07T04:58:36;3.17;;;1.70;;
29280;SDS011;25048;49.590;11.026;2023-08-07T05:01:03;4.23;;;1.90;;
29280;SDS011;25048;49.590;11.026;2023-08-07T05:03:32;4.10;;;2.10;;
29280;SDS011;25048;49.590;11.026;2023-08-07T05:06:00;4.83;;;2.30;;
29280;SDS011;25048;49.590;11.026;2023-08-07T05:08:28;4.93;;;2.10;;
29280;SDS011;25048;49.590;11.026;2023-08-07T05:10:55;7.27;;;1.87;;
29280;SDS011;25048;49.590;11.026;2023-08-07T05:13:23;2.80;;;2.03;;
29280;SDS011;25048;49.590;11.026;2023-08-07T05:15:50;6.43;;;2.00;;
29280;SDS011;25048;49.590;11.026;2023-08-07T05:18:18;3.80;;;2.20;;
29280;SDS011;25048;49.590;11.026;2023-08-07T05:20:45;7.43;;;2.37;;
29280;SDS011;25048;49.590;11.026;2023-08-07T05:23:13;5.77;;;2.33;;
29280;SDS011;25048;49.590;11.026;2023-08-07T05:25:40;9.33;;;2.40;;
29280;SDS011;25048;49.590;11.026;2023-08-07T05:28:08;6.07;;;2.30;;
29280;SDS011;25048;49.590;11.026;2023-08-07T05:30:35;7.67;;;2.53;;
29280;SDS011;25048;49.590;11.026;2023-08-07T05:33:03;4.33;;;2.50;;
29280;SDS011;25048;49.590;11.026;2023-08-07T05:35:30;5.20;;;2.30;;
29280;SDS011;25048;49.590;11.026;2023-08-07T05:37:58;10.23;;;2.83;;
29280;SDS011;25048;49.590;11.026;2023-08-07T05:40:25;6.47;;;2.50;;
29280;SDS011;25048;49.590;11.026;2023-08-07T05:42:53;8.33;;;2.17;;
29280;SDS011;25048;49.590;11.026;2023-08-07T05:45:21;3.60;;;2.37;;
29280;SDS011;25048;49.590;11.026;2023-08-07T05:47:48;8.30;;;2.17;;
29280;SDS011;25048;49.590;11.026;2023-08-07T05:50:16;5.97;;;2.03;;
29280;SDS011;25048;49.590;11.026;2023-08-07T05:52:43;4.30;;;2.70;;
29280;SDS011;25048;49.590;11.026;2023-08-07T05:55:11;9.90;;;2.30;;
29280;SDS011;25048;49.590;11.026;2023-08-07T05:57:39;5.10;;;2.33;;
29280;SDS011;25048;49.590;11.026;2023-08-07T06:00:06;5.40;;;2.10;;
29280;SDS011;25048;49.590;11.026;2023-08-07T06:02:36;6.83;;;2.30;;
29280;SDS011;25048;49.590;11.026;2023-08-07T06:05:04;6.70;;;2.20;;
29280;SDS011;25048;49.590;11.026;2023-08-07T06:07:31;6.60;;;2.50;;
29280;SDS011;25048;49.590;11.026;2023-08-07T06:09:59;6.23;;;2.23;;
29280;SDS011;25048;49.590;11.026;2023-08-07T06:12:26;4.63;;;2.37;;
29280;SDS011;25048;49.590;11.026;2023-08-07T06:14:54;7.60;;;2.30;;
29280;SDS011;25048;49.590;11.026;2023-08-07T06:17:21;4.53;;;1.90;;
29280;SDS011;25048;49.590;11.026;2023-08-07T06:19:49;3.83;;;2.00;;
29280;SDS011;25048;49.590;11.026;2023-08-07T06:22:16;4.80;;;2.03;;
29280;SDS011;25048;49.590;11.026;2023-08-07T06:24:44;4.43;;;2.10;;
29280;SDS011;25048;49.590;11.026;2023-08-07T06:27:11;3.50;;;1.90;;
29280;SDS011;25048;49.590;11.026;2023-08-07T06:29:39;5.13;;;2.60;;
29280;SDS011;25048;49.590;11.026;2023-08-07T06:32:07;3.63;;;2.00;;
29280;SDS011;25048;49.590;11.026;2023-08-07T06:34:36;4.27;;;2.20;;
29280;SDS011;25048;49.590;11.026;2023-08-07T06:37:04;6.23;;;2.47;;
29280;SDS011;25048;49.590;11.026;2023-08-07T06:39:32;5.97;;;1.83;;
29280;SDS011;25048;49.590;11.026;2023-08-07T06:41:59;4.50;;;2.10;;
29280;SDS011;25048;49.590;11.026;2023-08-07T06:44:27;6.10;;;2.07;;
29280;SDS011;25048;49.590;11.026;2023-08-07T06:46:54;4.83;;;2.17;;
29280;SDS011;25048;49.590;11.026;2023-08-07T06:49:22;6.30;;;2.40;;
29280;SDS011;25048;49.590;11.026;2023-08-07T06:51:49;8.83;;;2.30;;
29280;SDS011;25048;49.590;11.026;2023-08-07T06:54:17;7.27;;;2.63;;
29280;SDS011;25048;49.590;11.026;2023-08-07T06:56:45;6.40;;;2.10;;
29280;SDS011;25048;49.590;11.026;2023-08-07T06:59:12;3.17;;;1.60;;
29280;SDS011;25048;49.590;11.026;2023-08-07T07:01:40;6.33;;;2.33;;
29280;SDS011;25048;49.590;11.026;2023-08-07T07:04:07;9.37;;;2.10;;
29280;SDS011;25048;49.590;11.026;2023-08-07T07:06:36;6.03;;;2.33;;
29280;SDS011;25048;49.590;11.026;2023-08-07T07:09:04;7.93;;;2.07;;
29280;SDS011;25048;49.590;11.026;2023-08-07T07:11:31;10.23;;;2.23;;
29280;SDS011;25048;49.590;11.026;2023-08-07T07:14:00;6.33;;;2.37;;
29280;SDS011;25048;49.590;11.026;2023-08-07T07:16:28;7.60;;;2.47;;
29280;SDS011;25048;49.590;11.026;2023-08-07T07:18:55;9.23;;;2.43;;
29280;SDS011;25048;49.590;11.026;2023-08-07T07:21:24;3.80;;;2.07;;
29280;SDS011;25048;49.590;11.026;2023-08-07T07:23:51;4.83;;;2.10;;
29280;SDS011;25048;49.590;11.026;2023-08-07T07:26:19;5.07;;;2.00;;
29280;SDS011;25048;49.590;11.026;2023-08-07T07:28:47;3.27;;;2.13;;
29280;SDS011;25048;49.590;11.026;2023-08-07T07:31:16;5.87;;;2.23;;
29280;SDS011;25048;49.590;11.026;2023-08-07T07:33:43;4.77;;;2.07;;
29280;SDS011;25048;49.590;11.026;2023-08-07T07:36:15;6.47;;;2.20;;
29280;SDS011;25048;49.590;11.026;2023-08-07T07:38:47;4.73;;;2.13;;
29280;SDS011;25048;49.590;11.026;2023-08-07T07:41:15;8.23;;;2.87;;
29280;SDS011;25048;49.590;11.026;2023-08-07T07:43:43;6.77;;;2.33;;
29280;SDS011;25048;49.590;11.026;2023-08-07T07:46:10;7.10;;;2.30;;
29280;SDS011;25048;49.590;11.026;2023-08-07T07:48:38;6.37;;;3.07;;
29280;SDS011;25048;49.590;11.026;2023-08-07T07:51:05;4.90;;;2.50;;
29280;SDS011;25048;49.590;11.026;2023-08-07T07:53:33;6.30;;;1.97;;
29280;SDS011;25048;49.590;11.026;2023-08-07T07:56:00;7.07;;;2.53;;
29280;SDS011;25048;49.590;11.026;2023-08-07T07:58:28;3.87;;;2.30;;
29280;SDS011;25048;49.590;11.026;2023-08-07T08:00:55;6.43;;;2.30;;
29280;SDS011;25048;49.590;11.026;2023-08-07T08:03:23;5.13;;;2.17;;
29280;SDS011;25048;49.590;11.026;2023-08-07T08:05:51;7.73;;;2.53;;
29280;SDS011;25048;49.590;11.026;2023-08-07T08:08:19;6.40;;;2.70;;
29280;SDS011;25048;49.590;11.026;2023-08-07T08:10:46;5.00;;;2.53;;
29280;SDS011;25048;49.590;11.026;2023-08-07T08:13:14;5.23;;;2.20;;
29280;SDS011;25048;49.590;11.026;2023-08-07T08:15:44;6.40;;;2.60;;
29280;SDS011;25048;49.590;11.026;2023-08-07T08:18:11;9.60;;;3.07;;
29280;SDS011;25048;49.590;11.026;2023-08-07T08:20:39;5.40;;;2.70;;
29280;SDS011;25048;49.590;11.026;2023-08-07T08:23:07;6.97;;;2.57;;
29280;SDS011;25048;49.590;11.026;2023-08-07T08:25:34;7.27;;;2.60;;
29280;SDS011;25048;49.590;11.026;2023-08-07T08:28:02;8.80;;;2.93;;
29280;SDS011;25048;49.590;11.026;2023-08-07T08:30:30;7.33;;;3.30;;
29280;SDS011;25048;49.590;11.026;2023-08-07T08:32:57;5.90;;;2.70;;
29280;SDS011;25048;49.590;11.026;2023-08-07T08:35:25;7.60;;;2.77;;
29280;SDS011;25048;49.590;11.026;2023-08-07T08:37:52;5.77;;;2.90;;
29280;SDS011;25048;49.590;11.026;2023-08-07T08:40:20;6.47;;;3.10;;
29280;SDS011;25048;49.590;11.026;2023-08-07T08:42:47;9.30;;;2.50;;
29280;SDS011;25048;49.590;11.026;2023-08-07T08:45:16;6.33;;;2.53;;
29280;SDS011;25048;49.590;11.026;2023-08-07T08:47:45;10.83;;;2.87;;
29280;SDS011;25048;49.590;11.026;2023-08-07T08:50:15;8.00;;;2.70;;
29280;SDS011;25048;49.590;11.026;2023-08-07T08:52:44;5.53;;;2.53;;
29280;SDS011;25048;49.590;11.026;2023-08-07T08:55:12;6.47;;;2.80;;
29280;SDS011;25048;49.590;11.026;2023-08-07T08:57:41;5.43;;;2.63;;
29280;SDS011;25048;49.590;11.026;2023-08-07T09:00:09;9.73;;;2.97;;
29280;SDS011;25048;49.590;11.026;2023-08-07T09:02:46;5.87;;;2.67;;
29280;SDS011;25048;49.590;11.026;2023-08-07T09:05:15;7.00;;;2.73;;
29280;SDS011;25048;49.590;11.026;2023-08-07T09:07:46;5.47;;;3.53;;
29280;SDS011;25048;49.590;11.026;2023-08-07T09:10:14;5.47;;;2.43;;
29280;SDS011;25048;49.590;11.026;2023-08-07T09:12:45;4.10;;;2.70;;
29280;SDS011;25048;49.590;11.026;2023-08-07T09:15:22;8.20;;;2.23;;
29280;SDS011;25048;49.590;11.026;2023-08-07T09:17:52;5.33;;;2.63;;
29280;SDS011;25048;49.590;11.026;2023-08-07T09:20:21;7.93;;;2.73;;
29280;SDS011;25048;49.590;11.026;2023-08-07T09:22:49;3.83;;;2.37;;
29280;SDS011;25048;49.590;11.026;2023-08-07T09:25:26;10.17;;;3.53;;
29280;SDS011;25048;49.590;11.026;2023-08-07T09:27:55;7.57;;;2.40;;
29280;SDS011;25048;49.590;11.026;2023-08-07T09:30:26;3.33;;;2.03;;
29280;SDS011;25048;49.590;11.026;2023-08-07T09:32:59;6.03;;;2.40;;
29280;SDS011;25048;49.590;11.026;2023-08-07T09:35:27;4.17;;;2.07;;
29280;SDS011;25048;49.590;11.026;2023-08-07T09:38:00;9.17;;;1.67;;
29280;SDS011;25048;49.590;11.026;2023-08-07T09:40:29;4.63;;;2.10;;
29280;SDS011;25048;49.590;11.026;2023-08-07T09:42:57;6.37;;;2.47;;
29280;SDS011;25048;49.590;11.026;2023-08-07T09:45:27;3.43;;;2.23;;
29280;SDS011;25048;49.590;11.026;2023-08-07T09:47:57;5.77;;;2.23;;
29280;SDS011;25048;49.590;11.026;2023-08-07T09:50:29;3.03;;;2.10;;
29280;SDS011;25048;49.590;11.026;2023-08-07T09:52:57;5.27;;;1.80;;
29280;SDS011;25048;49.590;11.026;2023-08-07T09:55:25;3.23;;;2.10;;
29280;SDS011;25048;49.590;11.026;2023-08-07T09:57:53;3.73;;;2.20;;
29280;SDS011;25048;49.590;11.026;2023-08-07T10:00:21;2.70;;;1.97;;
29280;SDS011;25048;49.590;11.026;2023-08-07T10:02:49;5.80;;;2.10;;
29280;SDS011;25048;49.590;11.026;2023-08-07T10:05:17;3.53;;;1.90;;
29280;SDS011;25048;49.590;11.026;2023-08-07T10:07:45;3.97;;;2.23;;
29280;SDS011;25048;49.590;11.026;2023-08-07T10:10:14;3.40;;;2.77;;
29280;SDS011;25048;49.590;11.026;2023-08-07T10:12:41;4.43;;;2.23;;
29280;SDS011;25048;49.590;11.026;2023-08-07T10:15:11;6.80;;;2.27;;
29280;SDS011;25048;49.590;11.026;2023-08-07T10:17:39;4.23;;;2.13;;
29280;SDS011;25048;49.590;11.026;2023-08-07T10:20:09;8.30;;;2.40;;
29280;SDS011;25048;49.590;11.026;2023-08-07T10:22:38;4.33;;;2.00;;
29280;SDS011;25048;49.590;11.026;2023-08-07T10:25:06;5.40;;;2.00;;
29280;SDS011;25048;49.590;11.026;2023-08-07T10:27:35;5.30;;;2.00;;
29280;SDS011;25048;49.590;11.026;2023-08-07T10:30:06;3.47;;;2.00;;
29280;SDS011;25048;49.590;11.026;2023-08-07T10:32:35;3.40;;;2.07;;
29280;SDS011;25048;49.590;11.026;2023-08-07T10:35:03;4.07;;;2.37;;
29280;SDS011;25048;49.590;11.026;2023-08-07T10:40:06;3.80;;;1.93;;
29280;SDS011;25048;49.590;11.026;2023-08-07T10:43:11;5.77;;;1.93;;
29280;SDS011;25048;49.590;11.026;2023-08-07T10:45:24;2.57;;;2.20;;
29280;SDS011;25048;49.590;11.026;2023-08-07T10:48:02;5.17;;;1.90;;
29280;SDS011;25048;49.590;11.026;2023-08-07T10:50:56;3.67;;;2.03;;
29280;SDS011;25048;49.590;11.026;2023-08-07T10:53:30;3.57;;;1.70;;
29280;SDS011;25048;49.590;11.026;2023-08-07T10:56:02;5.67;;;1.87;;
29280;SDS011;25048;49.590;11.026;2023-08-07T10:58:34;4.37;;;1.43;;
29280;SDS011;25048;49.590;11.026;2023-08-07T11:03:54;4.37;;;1.60;;
29280;SDS011;25048;49.590;11.026;2023-08-07T11:06:28;3.23;;;1.70;;
29280;SDS011;25048;49.590;11.026;2023-08-07T11:08:53;3.10;;;1.63;;
29280;SDS011;25048;49.590;11.026;2023-08-07T11:11:21;5.50;;;1.80;;
29280;SDS011;25048;49.590;11.026;2023-08-07T11:13:49;5.07;;;2.00;;
29280;SDS011;25048;49.590;11.026;2023-08-07T11:16:17;5.00;;;1.73;;
29280;SDS011;25048;49.590;11.026;2023-08-07T11:18:47;5.27;;;1.73;;
29280;SDS011;25048;49.590;11.026;2023-08-07T11:21:15;3.13;;;1.60;;
29280;SDS011;25048;49.590;11.026;2023-08-07T11:23:43;7.07;;;2.03;;
29280;SDS011;25048;49.590;11.026;2023-08-07T11:26:12;3.83;;;1.60;;
29280;SDS011;25048;49.590;11.026;2023-08-07T11:28:39;7.73;;;2.07;;
29280;SDS011;25048;49.590;11.026;2023-08-07T11:31:07;3.73;;;1.63;;
29280;SDS011;25048;49.590;11.026;2023-08-07T11:33:35;6.50;;;1.70;;
29280;SDS011;25048;49.590;11.026;2023-08-07T11:36:03;2.87;;;1.77;;
29280;SDS011;25048;49.590;11.026;2023-08-07T11:38:34;4.23;;;1.63;;
29280;SDS011;25048;49.590;11.026;2023-08-07T11:41:04;4.07;;;1.90;;
29280;SDS011;25048;49.590;11.026;2023-08-07T11:43:33;3.97;;;1.73;;
29280;SDS011;25048;49.590;11.026;2023-08-07T11:46:02;5.30;;;2.00;;
29280;SDS011;25048;49.590;11.026;2023-08-07T11:48:33;2.87;;;1.40;;
29280;SDS011;25048;49.590;11.026;2023-08-07T11:51:01;3.07;;;1.37;;
29280;SDS011;25048;49.590;11.026;2023-08-07T11:53:31;3.10;;;1.47;;
29280;SDS011;25048;49.590;11.026;2023-08-07T11:56:03;2.87;;;1.50;;
29280;SDS011;25048;49.590;11.026;2023-08-07T11:58:39;3.23;;;1.40;;
29280;SDS011;25048;49.590;11.026;2023-08-07T12:01:26;4.03;;;1.33;;
29280;SDS011;25048;49.590;11.026;2023-08-07T12:03:51;4.10;;;1.60;;
29280;SDS011;25048;49.590;11.026;2023-08-07T12:06:20;5.17;;;1.35;;
29280;SDS011;25048;49.590;11.026;2023-08-07T12:08:49;5.40;;;2.17;;
29280;SDS011;25048;49.590;11.026;2023-08-07T12:11:19;5.70;;;1.53;;
29280;SDS011;25048;49.590;11.026;2023-08-07T12:13:47;5.53;;;1.60;;
29280;SDS011;25048;49.590;11.026;2023-08-07T12:16:16;4.17;;;2.03;;
29280;SDS011;25048;49.590;11.026;2023-08-07T12:18:48;3.97;;;1.80;;
29280;SDS011;25048;49.590;11.026;2023-08-07T12:21:17;2.70;;;1.50;;
29280;SDS011;25048;49.590;11.026;2023-08-07T12:23:49;5.40;;;1.60;;
29280;SDS011;25048;49.590;11.026;2023-08-07T12:26:17;5.33;;;1.60;;
29280;SDS011;25048;49.590;11.026;2023-08-07T12:28:45;5.10;;;1.50;;
29280;SDS011;25048;49.590;11.026;2023-08-07T12:31:12;4.73;;;1.40;;
29280;SDS011;25048;49.590;11.026;2023-08-07T12:33:40;3.03;;;1.57;;
29280;SDS011;25048;49.590;11.026;2023-08-07T12:36:07;3.17;;;1.30;;
29280;SDS011;25048;49.590;11.026;2023-08-07T12:38:36;1.23;;;1.07;;
29280;SDS011;25048;49.590;11.026;2023-08-07T12:41:03;1.80;;;1.00;;
29280;SDS011;25048;49.590;11.026;2023-08-07T12:43:31;2.77;;;1.07;;
29280;SDS011;25048;49.590;11.026;2023-08-07T12:45:59;2.30;;;1.30;;
29280;SDS011;25048;49.590;11.026;2023-08-07T12:48:27;3.92;;;1.50;;
29280;SDS011;25048;49.590;11.026;2023-08-07T12:50:54;3.83;;;1.50;;
29280;SDS011;25048;49.590;11.026;2023-08-07T12:53:22;4.97;;;1.50;;
29280;SDS011;25048;49.590;11.026;2023-08-07T12:55:49;3.42;;;1.50;;
29280;SDS011;25048;49.590;11.026;2023-08-07T12:58:17;2.70;;;1.32;;
29280;SDS011;25048;49.590;11.026;2023-08-07T13:00:46;4.13;;;1.60;;
29280;SDS011;25048;49.590;11.026;2023-08-07T13:03:14;3.15;;;1.90;;
29280;SDS011;25048;49.590;11.026;2023-08-07T13:05:41;1.90;;;1.50;;
29280;SDS011;25048;49.590;11.026;2023-08-07T13:08:09;2.10;;;1.60;;
29280;SDS011;25048;49.590;11.026;2023-08-07T13:10:36;3.20;;;1.40;;
29280;SDS011;25048;49.590;11.026;2023-08-07T13:13:05;2.90;;;1.50;;
29280;SDS011;25048;49.590;11.026;2023-08-07T13:15:32;4.30;;;1.50;;
29280;SDS011;25048;49.590;11.026;2023-08-07T13:18:00;5.97;;;1.40;;
29280;SDS011;25048;49.590;11.026;2023-08-07T13:20:28;2.77;;;1.70;;
29280;SDS011;25048;49.590;11.026;2023-08-07T13:22:58;2.20;;;1.60;;
29280;SDS011;25048;49.590;11.026;2023-08-07T13:25:25;4.00;;;1.40;;
29280;SDS011;25048;49.590;11.026;2023-08-07T13:27:52;2.23;;;1.57;;
29280;SDS011;25048;49.590;11.026;2023-08-07T13:30:20;2.47;;;1.63;;
29280;SDS011;25048;49.590;11.026;2023-08-07T13:32:48;2.00;;;1.50;;
29280;SDS011;25048;49.590;11.026;2023-08-07T13:35:15;5.90;;;1.60;;
29280;SDS011;25048;49.590;11.026;2023-08-07T13:37:42;1.50;;;1.40;;
29280;SDS011;25048;49.590;11.026;2023-08-07T13:40:10;4.17;;;2.23;;
29280;SDS011;25048;49.590;11.026;2023-08-07T13:42:39;4.57;;;1.50;;
29280;SDS011;25048;49.590;11.026;2023-08-07T13:45:07;2.63;;;1.37;;
29280;SDS011;25048;49.590;11.026;2023-08-07T13:47:36;1.53;;;1.40;;
29280;SDS011;25048;49.590;11.026;2023-08-07T13:50:03;2.73;;;1.30;;
29280;SDS011;25048;49.590;11.026;2023-08-07T13:52:33;2.43;;;1.33;;
29280;SDS011;25048;49.590;11.026;2023-08-07T13:55:01;1.80;;;1.40;;
29280;SDS011;25048;49.590;11.026;2023-08-07T13:57:29;2.30;;;1.40;;
29280;SDS011;25048;49.590;11.026;2023-08-07T13:59:56;4.47;;;1.20;;
29280;SDS011;25048;49.590;11.026;2023-08-07T14:02:24;3.87;;;1.30;;
29280;SDS011;25048;49.590;11.026;2023-08-07T14:04:51;2.33;;;1.57;;
29280;SDS011;25048;49.590;11.026;2023-08-07T14:07:19;3.62;;;1.40;;
29280;SDS011;25048;49.590;11.026;2023-08-07T14:09:46;2.60;;;1.60;;
29280;SDS011;25048;49.590;11.026;2023-08-07T14:12:14;5.97;;;1.97;;
29280;SDS011;25048;49.590;11.026;2023-08-07T14:14:41;4.17;;;1.47;;
29280;SDS011;25048;49.590;11.026;2023-08-07T14:17:09;4.28;;;1.10;;
29280;SDS011;25048;49.590;11.026;2023-08-07T14:19:36;6.90;;;2.27;;
29280;SDS011;25048;49.590;11.026;2023-08-07T14:22:04;1.85;;;1.12;;
29280;SDS011;25048;49.590;11.026;2023-08-07T14:24:31;3.25;;;1.50;;
29280;SDS011;25048;49.590;11.026;2023-08-07T14:26:59;1.90;;;1.50;;
29280;SDS011;25048;49.590;11.026;2023-08-07T14:29:26;4.93;;;1.77;;
29280;SDS011;25048;49.590;11.026;2023-08-07T14:31:54;7.17;;;2.00;;
29280;SDS011;25048;49.590;11.026;2023-08-07T14:34:21;5.10;;;2.17;;
29280;SDS011;25048;49.590;11.026;2023-08-07T14:36:49;3.40;;;1.70;;
29280;SDS011;25048;49.590;11.026;2023-08-07T14:39:17;2.80;;;1.33;;
29280;SDS011;25048;49.590;11.026;2023-08-07T14:41:46;1.87;;;1.40;;
29280;SDS011;25048;49.590;11.026;2023-08-07T14:44:14;3.65;;;1.57;;
29280;SDS011;25048;49.590;11.026;2023-08-07T14:46:41;2.85;;;1.67;;
29280;SDS011;25048;49.590;11.026;2023-08-07T14:49:09;3.27;;;1.90;;
29280;SDS011;25048;49.590;11.026;2023-08-07T14:51:36;5.20;;;1.80;;